Pagrindinis puslapis
METAR-TAF:

METAR-TAF

Oro uostai :

Akaba, Jordanija

platuma: 29-38N, ilguma: 035-01E, Aukštis: 53 m

Dabartinis oras

Ataskaita buvo paskelbta 33 minutes, ne 16:00 UTC
Ramus vėjas
Temperatūra 14°C
Drėgmė 63%
Slėgis 1023 hPa
Matomumas 10 km arba daugiau
Su prošvaistėmis ne aukštis 3000 ft

METAR: OJAQ 221600Z 00000KT 9999 BKN030 14/07 Q1023 NOSIG

Laikas: 18:33 (16:33 UTC)

Prognozė

Ataskaita buvo paskelbta 5 valandos ir 44 minutes, ne 10:49 UTC
Prognozė galioja nuo 22 metu 12 UTC su 23 metu 18 UTC
Vėjas 14 kt iš Šiaurės
Matomumas: 7000 m
Išsisklaidę debesys ne aukštis 4000 ft

TAF: OJAQ 221049Z 2212/2318 36014KT 7000 SCT040

Orai ataskaitas ir orų prognozės (METAR, TAF).

turimą stotys yra geltonos ir raudonos taškus žemėlapyje.

Perkelti pele per norėdami pamatyti stoties vardą.

Tada spustelėkite, norėdami matyti oro stebėjimo ir prognozės.

Norėdami pakeisti žemėlapį: spustelėkite ant žalios mygtukų su juodo kryžiaus žemyn,; žalią mygtuką su brūkšneliu, jei norite nutolinti; arba žalių rodyklių gretimoms žemėlapius.


METAR-TAF: